Flight Track Log - Related Links

Times and Time Zones

All times are in EST time to prevent confusion due to time zone crossing. See the SWA1586 flight status page for this flight to view local times or setup timezone preferences in your user account.

Time Position Orientation Groundspeed Altitude Reporting Facility
EST Latitude Longitude Course Direction KTS MPH feet Rate Location/Type
Sat 09:18:51 AM 32.8333 -96.8333 140° Southeast 165 190 1,400  Level Dallas / Fort Worth TRACON
Sat 09:20:03 AM 32.7833 -96.7833 140° Southeast 230 265 3,900 2,455 Climbing Dallas / Fort Worth TRACON
Sat 09:21:03 AM 32.7333 -96.7333 140° Southeast 228 262 6,800 2,154 Climbing Dallas / Fort Worth TRACON
Sat 09:23:18 AM 32.6386 -96.8897 234° Southwest 301 346 10,900 2,112 Climbing Fort Worth Center
Sat 09:24:19 AM 32.6258 -97.0022 262° West 337 388 13,700 2,390 Climbing Fort Worth Center
Sat 09:25:21 AM 32.6386 -97.1142 278° West 342 394 15,800 2,049 Climbing Fort Worth Center
Sat 09:26:22 AM 32.6506 -97.2311 277° West 356 410 17,900 1,902 Climbing Fort Worth Center
Sat 09:27:24 AM 32.6622 -97.3492 277° West 359 413 19,700 1,597 Climbing Fort Worth Center
Sat 09:28:26 AM 32.6761 -97.4794 277° West 367 422 21,200 1,512 Climbing Fort Worth Center
Sat 09:29:27 AM 32.6886 -97.6061 277° West 383 441 22,800 1,317 Climbing Fort Worth Center
Sat 09:30:29 AM 32.7000 -97.7217 277° West 387 445 23,900 1,171 Climbing Fort Worth Center
Sat 09:31:30 AM 32.7122 -97.8528 276° West 397 457 25,200 1,122 Climbing Fort Worth Center
Sat 09:32:32 AM 32.7256 -97.9853 277° West 403 464 26,200 1,065 Climbing Fort Worth Center
Sat 09:33:34 AM 32.7086 -98.1461 263° West 408 470 27,400 1,024 Climbing Fort Worth Center
Sat 09:34:35 AM 32.6914 -98.2794 261° West 410 472 28,300 1,268 Climbing Fort Worth Center
Sat 09:35:37 AM 32.6756 -98.4153 262° West 415 478 30,000 1,854 Climbing Fort Worth Center
Sat 09:36:38 AM 32.6592 -98.5325 261° West 407 468 32,100 1,610 Climbing Fort Worth Center
Sat 09:37:40 AM 32.6397 -98.6892 262° West 401 461 33,300 919 Climbing Fort Worth Center
Sat 09:38:42 AM 32.6214 -98.8272 261° West 419 482 34,000 341 Climbing Fort Worth Center
Sat 09:39:43 AM 32.6039 -98.9606 261° West 410 472 34,000  Level Fort Worth Center
Sat 09:40:45 AM 32.5864 -99.0900 261° West 399 459 34,000  Level Fort Worth Center
Sat 09:41:47 AM 32.5683 -99.2225 261° West 405 466 34,000  Level Fort Worth Center
Sat 09:42:48 AM 32.5511 -99.3556 261° West 408 470 34,000  Level Fort Worth Center
Sat 09:43:50 AM 32.5319 -99.4911 261° West 414 476 34,000  Level Fort Worth Center
Sat 09:44:52 AM 32.5125 -99.6283 260° West 419 482 34,000  Level Fort Worth Center
Sat 09:45:53 AM 32.4933 -99.7669 261° West 421 484 34,000  Level Fort Worth Center
Sat 09:46:55 AM 32.4772 -99.9083 262° West 425 489 34,000  Level Fort Worth Center
Sat 09:47:57 AM 32.4628 -100.0764 264° West 424 488 34,000  Level Fort Worth Center
Sat 09:48:59 AM 32.4492 -100.2164 263° West 425 489 34,000  Level Fort Worth Center
Sat 09:50:01 AM 32.4361 -100.3569 264° West 428 493 34,000  Level Fort Worth Center
Sat 09:51:02 AM 32.4222 -100.4956 263° West 425 489 34,000  Level Fort Worth Center
Sat 09:52:04 AM 32.4094 -100.6356 264° West 427 491 34,000  Level Fort Worth Center
Sat 09:53:06 AM 32.3950 -100.7758 263° West 428 493 34,000  Level Fort Worth Center
Sat 09:54:08 AM 32.3836 -100.9136 264° West 423 487 34,000  Level Fort Worth Center
Sat 09:55:10 AM 32.3697 -101.0514 263° West 422 486 34,000  Level Fort Worth Center
Sat 09:56:12 AM 32.3531 -101.2192 263° West 426 490 34,000  Level Fort Worth Center
Sat 09:57:13 AM 32.3406 -101.3419 263° West 423 487 34,000  Level Fort Worth Center
Sat 09:58:15 AM 32.3258 -101.4797 263° West 424 488 34,000  Level Fort Worth Center
Sat 09:59:17 AM 32.3106 -101.6181 263° West 425 489 34,000  Level Fort Worth Center
Sat 10:00:19 AM 32.2939 -101.7847 263° West 427 491 34,000  Level Fort Worth Center
Sat 10:01:21 AM 32.2786 -101.9231 263° West 426 490 34,000  Level Fort Worth Center
Sat 10:02:23 AM 32.2633 -102.0631 263° West 428 493 34,000  Level Fort Worth Center
Sat 10:03:24 AM 32.2483 -102.2031 263° West 428 493 34,000  Level Fort Worth Center
Sat 10:04:26 AM 32.2331 -102.3428 263° West 428 493 34,000  Level Fort Worth Center
Sat 10:05:28 AM 32.2175 -102.4825 263° West 427 491 34,000  Level Fort Worth Center
Sat 10:06:30 AM 32.2017 -102.6222 262° West 427 491 34,000  Level Fort Worth Center
Sat 10:07:32 AM 32.1833 -102.7883 263° West 426 490 34,000  Level Fort Worth Center
Sat 10:08:34 AM 32.1675 -102.9264 262° West 426 490 34,000  Level Fort Worth Center
Sat 10:09:36 AM 32.1519 -103.0653 263° West 426 490 34,000  Level Fort Worth Center
Sat 10:10:38 AM 32.1350 -103.2028 262° West 427 491 34,000  Level Fort Worth Center
Sat 10:11:40 AM 32.1197 -103.3417 263° West 427 491 34,000  Level Fort Worth Center
Sat 10:12:41 AM 32.1008 -103.4792 261° West 426 490 34,000  Level Fort Worth Center
Sat 10:13:43 AM 32.0836 -103.6164 262° West 426 490 34,000  Level Fort Worth Center
Sat 10:14:45 AM 32.0639 -103.7808 262° West 426 490 34,000  Level Fort Worth Center
Sat 10:15:47 AM 32.0467 -103.9189 262° West 427 491 34,000  Level Fort Worth Center
Sat 10:16:49 AM 32.0297 -104.0572 262° West 427 491 34,000  Level Fort Worth Center
Sat 10:17:51 AM 32.0125 -104.1956 262° West 428 493 34,000  Level Fort Worth Center
Sat 10:18:53 AM 31.9953 -104.3328 262° West 427 491 34,000  Level Fort Worth Center
Sat 10:19:55 AM 31.9753 -104.4969 262° West 425 489 34,000  Level Fort Worth Center
Sat 10:20:57 AM 31.9633 -104.6356 264° West 426 490 34,000 -1,301 Level Fort Worth Center
Sat 10:22:18 AM 31.9475 -104.8014 264° West 424 488 30,900 -2,535 Descending Albuquerque Center
Sat 10:23:19 AM 31.9314 -104.9653 263° West 425 489 28,000 -2,585 Descending Albuquerque Center
Sat 10:24:21 AM 31.9172 -105.0958 263° West 418 481 25,600 -2,323 Descending Albuquerque Center
Sat 10:25:23 AM 31.9033 -105.2189 262° West 400 460 23,200 -2,436 Descending Albuquerque Center
Sat 10:26:02 AM 31.8914 -105.3164 262° West 383 441 21,500 -2,262 Descending Albuquerque Center
Sat 10:26:24 AM 31.8903 -105.3414 267° West 385 443 20,900 -2,262 Descending Albuquerque Center
Sat 10:27:03 AM 31.8789 -105.4325 262° West 363 418 19,200 -2,129 Descending Albuquerque Center
Sat 10:27:26 AM 31.8775 -105.4594 267° West 368 423 18,700 -1,970 Descending Albuquerque Center
Sat 10:28:10 AM 31.8719 -105.5544 266° West 341 392 17,000 -1,967 Descending Albuquerque Center
Sat 10:28:27 AM 31.8742 -105.5706 279° West 344 396 16,700 -2,300 Descending Albuquerque Center
Sat 10:29:10 AM 31.8733 -105.6644 269° West 331 381 14,700 -2,571 Descending Albuquerque Center
Sat 10:29:30 AM 31.8736 -105.7000 271° West 331 381 14,000 -2,164 Descending Albuquerque Center
Sat 10:30:11 AM 31.8714 -105.7675 268° West 318 366 12,500 -2,066 Descending Albuquerque Center
Sat 10:30:31 AM 31.8733 -105.8019 274° West 318 366 11,900 -2,066 Descending Albuquerque Center
Sat 10:31:12 AM 31.8700 -105.8756 267° West 308 354 10,400 -1,967 Descending Albuquerque Center
Sat 10:31:32 AM 31.8717 -105.9025 274° West 310 357 9,900 -600 Descending Albuquerque Center
Sat 10:32:12 AM 31.8700 -105.9681 268° West 276 318 9,800 -484 Descending Albuquerque Center
Sat 10:32:34 AM 31.8683 -105.9908 265° West 273 314 9,400 -1,279 Descending Albuquerque Center
Sat 10:33:13 AM 31.8661 -106.0517 268° West 246 283 8,500 -1,258 Descending Albuquerque Center
Sat 10:33:36 AM 31.8658 -106.0731 269° West 256 295 8,100 -1,100 Descending Albuquerque Center
Sat 10:34:13 AM 31.8483 -106.1289 250° West 236 272 7,400 -984 Descending Albuquerque Center
Sat 10:34:37 AM 31.8433 -106.1442 249° West 232 267 7,100 -1,082 Descending Albuquerque Center
Sat 10:35:14 AM 31.8267 -106.1967 250° West 224 258 6,300 -1,065 Descending Albuquerque Center
Sat 10:35:39 AM 31.8214 -106.2128 249° West 225 259 6,000 -689 Descending Albuquerque Center
Sat 10:36:15 AM 31.8044 -106.2622 248° West 211 243 5,600 -774 Descending Albuquerque Center
Sat 10:36:41 AM 31.7975 -106.2872 252° West 203 234 5,200 -800 Descending Albuquerque Center
Sat 10:37:15 AM 31.7989 -106.3136 274° West 153 176 4,800 -787 Descending Albuquerque Center
Sat 10:37:42 AM 31.7992 -106.3336 271° West 147 169 4,400 -607 Descending Albuquerque Center
Sat 10:38:44 AM 31.8025 -106.3761 275° West 135 155 3,900 -484 Descending Albuquerque Center
Sat 10:40:00 AM 31.8000 -106.3667 North  Level FlightAware Approximate
Sat 10:47:00 AM 31.8072 -106.3764 North  Level Estimated
Sat 10:48:00 AM 31.8072 -106.3764 North  Level Estimated
Sat 10:49:00 AM 31.8072 -106.3764 North  Level Estimated
Sat 10:50:00 AM 31.8072 -106.3764 North  Level Estimated

Login

Don't have an account? Register now (free) for customized features, flight alerts, and more!